createdAt,value
2022-09-10T00:00:56.497Z,100450.19
2022-09-10T00:03:23.498Z,100455.84
2022-09-10T00:05:50.338Z,100460.19
2022-09-10T00:08:17.670Z,100459.97
2022-09-10T00:10:51.908Z,100457.53
2022-09-10T00:13:20.049Z,100454.53
2022-09-10T00:15:47.814Z,100445.31
2022-09-10T00:18:15.457Z,100449.50
2022-09-10T00:20:47.899Z,100451.91
2022-09-10T00:23:15.484Z,100446.72
2022-09-10T00:25:42.777Z,100445.81
2022-09-10T00:28:09.587Z,100441.47
2022-09-10T00:30:43.001Z,100443.59
2022-09-10T00:33:10.013Z,100451.09
2022-09-10T00:35:37.266Z,100452.56
2022-09-10T00:38:04.050Z,100446.13
2022-09-10T00:40:31.502Z,100445.31
2022-09-10T00:42:58.441Z,100445.19
2022-09-10T00:45:29.739Z,100451.59
2022-09-10T00:47:58.080Z,100446.56
2022-09-10T00:50:30.320Z,100450.69
2022-09-10T00:52:58.407Z,100448.69
2022-09-10T00:55:24.945Z,100450.69
2022-09-10T00:57:54.808Z,100449.00
2022-09-10T01:00:21.374Z,100446.19
2022-09-10T01:02:48.186Z,100448.22
2022-09-10T01:05:15.123Z,100443.81
2022-09-10T01:07:42.822Z,100443.38
2022-09-10T01:10:16.200Z,100443.59
2022-09-10T01:13:01.659Z,100445.31
2022-09-10T01:15:35.431Z,100445.81
2022-09-10T01:18:21.284Z,100447.19
2022-09-10T01:20:47.922Z,100440.06
2022-09-10T01:23:33.794Z,100441.34
2022-09-10T01:26:20.915Z,100444.06
2022-09-10T01:28:56.771Z,100447.06
2022-09-10T01:31:28.200Z,100449.19
2022-09-10T01:34:21.131Z,100447.56
2022-09-10T01:36:48.683Z,100457.66
2022-09-10T01:39:18.145Z,100450.03
2022-09-10T01:41:45.436Z,100458.00
2022-09-10T01:44:31.157Z,100459.00
2022-09-10T01:47:09.240Z,100467.44
2022-09-10T01:49:43.767Z,100468.13
2022-09-10T01:52:30.348Z,100466.56
2022-09-10T01:55:06.511Z,100470.78
2022-09-10T01:57:55.357Z,100467.56
2022-09-10T02:00:24.836Z,100469.31
2022-09-10T02:02:59.028Z,100465.53
2022-09-10T02:05:31.212Z,100467.72
2022-09-10T02:08:10.123Z,100462.91
2022-09-10T02:10:52.118Z,100461.72
2022-09-10T02:13:20.344Z,100455.50
2022-09-10T02:15:59.334Z,100448.69
2022-09-10T02:18:32.870Z,100458.66
2022-09-10T02:21:02.736Z,100458.84
2022-09-10T02:23:37.212Z,100455.44
2022-09-10T02:26:03.770Z,100458.00
2022-09-10T02:28:30.452Z,100442.19
2022-09-10T02:30:57.106Z,100438.91
2022-09-10T02:33:23.774Z,100456.75
2022-09-10T02:35:50.245Z,100453.81
2022-09-10T02:38:18.118Z,100444.91
2022-09-10T02:40:46.783Z,100434.66
2022-09-10T02:43:13.232Z,100440.75
2022-09-10T02:45:41.064Z,100440.69
2022-09-10T02:48:07.625Z,100432.47
2022-09-10T02:50:34.454Z,100437.31
2022-09-10T02:53:02.391Z,100433.59
2022-09-10T02:55:29.432Z,100438.56
2022-09-10T02:57:56.158Z,100441.25
2022-09-10T03:00:22.792Z,100439.06
2022-09-10T03:02:49.502Z,100431.84
2022-09-10T03:05:16.513Z,100434.84
2022-09-10T03:07:44.818Z,100440.91
2022-09-10T03:10:12.700Z,100433.19
2022-09-10T03:12:39.302Z,100435.69
2022-09-10T03:15:06.892Z,100438.97
2022-09-10T03:17:33.457Z,100441.00
2022-09-10T03:19:59.972Z,100440.63
2022-09-10T03:22:26.694Z,100441.88
2022-09-10T03:24:55.019Z,100433.75
2022-09-10T03:27:22.792Z,100428.84
2022-09-10T03:29:49.526Z,100429.41
2022-09-10T03:32:16.062Z,100437.03
2022-09-10T03:34:42.919Z,100437.63
2022-09-10T03:37:09.505Z,100428.78
2022-09-10T03:39:36.076Z,100434.66
2022-09-10T03:42:05.209Z,100434.41
2022-09-10T03:44:33.551Z,100433.81
2022-09-10T03:47:00.713Z,100428.25
2022-09-10T03:49:27.574Z,100431.06
2022-09-10T03:51:54.231Z,100441.25
2022-09-10T03:54:21.270Z,100437.25
2022-09-10T03:56:47.933Z,100437.97
2022-09-10T03:59:14.842Z,100430.66
2022-09-10T04:01:41.792Z,100426.03
2022-09-10T04:04:08.413Z,100435.16
2022-09-10T04:06:35.436Z,100442.66
2022-09-10T04:09:01.882Z,100434.84
2022-09-10T04:11:28.824Z,100448.22
2022-09-10T04:13:57.161Z,100436.63
2022-09-10T04:16:24.581Z,100442.44
2022-09-10T04:18:51.186Z,100449.19
2022-09-10T04:21:17.832Z,100445.66
2022-09-10T04:23:47.640Z,100439.81
2022-09-10T04:26:15.062Z,100448.09
2022-09-10T04:28:43.228Z,100444.59
2022-09-10T04:31:10.238Z,100445.03
2022-09-10T04:33:37.275Z,100452.25
2022-09-10T04:36:05.429Z,100449.88
2022-09-10T04:38:36.524Z,100448.19
2022-09-10T04:41:03.019Z,100454.81
2022-09-10T04:43:29.500Z,100452.84
2022-09-10T04:45:59.101Z,100459.28
2022-09-10T04:48:25.679Z,100461.31
2022-09-10T04:51:14.909Z,100462.09
2022-09-10T04:53:43.205Z,100463.31
2022-09-10T04:56:09.849Z,100460.19
2022-09-10T04:58:39.154Z,100456.97
2022-09-10T05:01:06.144Z,100459.72
2022-09-10T05:03:32.719Z,100459.88
2022-09-10T05:05:59.497Z,100461.03
2022-09-10T05:08:25.931Z,100466.88
2022-09-10T05:10:56.278Z,100465.94
2022-09-10T05:13:24.145Z,100472.88
2022-09-10T05:15:50.765Z,100471.13
2022-09-10T05:18:17.571Z,100465.94
2022-09-10T05:20:44.923Z,100468.34
2022-09-10T05:23:11.771Z,100463.97
2022-09-10T05:25:39.193Z,100467.41
2022-09-10T05:28:06.449Z,100466.00
2022-09-10T05:30:33.149Z,100473.09
2022-09-10T05:33:00.631Z,100467.19
2022-09-10T05:35:28.863Z,100472.00
2022-09-10T05:37:58.567Z,100471.41
2022-09-10T05:40:25.455Z,100465.94
2022-09-10T05:42:53.345Z,100475.22
2022-09-10T05:45:21.137Z,100473.09
2022-09-10T05:47:47.682Z,100476.81
2022-09-10T05:50:18.690Z,100471.34
2022-09-10T05:52:45.546Z,100464.84
2022-09-10T05:55:12.424Z,100468.66
2022-09-10T05:57:40.233Z,100474.72
2022-09-10T06:00:09.292Z,100472.72
2022-09-10T06:02:45.363Z,100471.28
2022-09-10T06:05:25.551Z,100469.22
2022-09-10T06:07:52.583Z,100473.59
2022-09-10T06:10:19.981Z,100467.03
2022-09-10T06:12:51.031Z,100477.19
2022-09-10T06:15:19.144Z,100476.53
2022-09-10T06:17:45.832Z,100482.97
2022-09-10T06:20:13.549Z,100480.78
2022-09-10T06:22:42.378Z,100486.91
2022-09-10T06:25:09.705Z,100491.97
2022-09-10T06:27:37.604Z,100491.22
2022-09-10T06:30:05.757Z,100496.91
2022-09-10T06:32:33.310Z,100502.13
2022-09-10T06:35:01.542Z,100496.63
2022-09-10T06:37:28.138Z,100505.75
2022-09-10T06:39:55.458Z,100499.06
2022-09-10T06:42:23.770Z,100508.34
2022-09-10T06:44:57.110Z,100500.75
2022-09-10T06:48:36.772Z,100507.03
2022-09-10T06:50:37.583Z,100510.84
2022-09-10T06:53:04.401Z,100500.81
2022-09-10T06:55:31.055Z,100506.09
2022-09-10T06:57:59.266Z,100505.72
2022-09-10T07:00:27.468Z,100509.44
2022-09-10T07:02:54.745Z,100504.94
2022-09-10T07:05:22.511Z,100511.19
2022-09-10T07:07:49.427Z,100513.50
2022-09-10T07:10:17.292Z,100520.25
2022-09-10T07:12:44.758Z,100514.41
2022-09-10T07:15:12.440Z,100524.81
2022-09-10T07:17:38.937Z,100516.88
2022-09-10T07:20:06.787Z,100518.41
2022-09-10T07:22:43.907Z,100520.75
2022-09-10T07:25:12.771Z,100516.81
2022-09-10T07:27:56.166Z,100531.88
2022-09-10T07:30:23.883Z,100530.88
2022-09-10T07:32:51.544Z,100535.69
2022-09-10T07:35:22.395Z,100528.28
2022-09-10T07:37:49.969Z,100532.19
2022-09-10T07:40:17.658Z,100537.91
2022-09-10T07:42:44.430Z,100543.75
2022-09-10T07:45:16.143Z,100535.63
2022-09-10T07:47:44.484Z,100535.09
2022-09-10T07:50:11.687Z,100538.41
2022-09-10T07:52:38.204Z,100544.44
2022-09-10T07:55:04.945Z,100546.34
2022-09-10T07:57:33.632Z,100550.25
2022-09-10T08:00:00.679Z,100551.50
2022-09-10T08:02:42.779Z,100554.19
2022-09-10T08:05:12.040Z,100549.19
2022-09-10T08:07:38.752Z,100545.56
2022-09-10T08:10:08.957Z,100547.97
2022-09-10T08:12:36.802Z,100559.41
2022-09-10T08:15:04.219Z,100564.63
2022-09-10T08:17:30.841Z,100567.94
2022-09-10T08:19:57.739Z,100566.44
2022-09-10T08:22:25.513Z,100571.47
2022-09-10T08:24:56.027Z,100574.78
2022-09-10T08:27:27.250Z,100575.69
2022-09-10T08:29:54.727Z,100575.88
2022-09-10T08:32:21.734Z,100573.88
2022-09-10T08:34:48.340Z,100575.28
2022-09-10T08:37:16.136Z,100575.28
2022-09-10T08:39:43.387Z,100577.28
2022-09-10T08:42:27.545Z,100583.19
2022-09-10T08:44:58.885Z,100576.63
2022-09-10T08:47:34.634Z,100579.19
2022-09-10T08:50:18.741Z,100578.91
2022-09-10T08:52:49.550Z,100577.16
2022-09-10T08:55:21.724Z,100589.06
2022-09-10T08:57:52.065Z,100586.25
2022-09-10T09:00:23.346Z,100583.47
2022-09-10T09:03:02.889Z,100590.50
2022-09-10T09:05:36.428Z,100592.56
2022-09-10T09:08:04.259Z,100597.72
2022-09-10T09:10:37.587Z,100595.84
2022-09-10T09:13:07.020Z,100587.13
2022-09-10T09:15:59.961Z,100594.38
2022-09-10T09:18:29.501Z,100596.19
2022-09-10T09:21:06.468Z,100590.38
2022-09-10T09:23:41.777Z,100587.53
2022-09-10T09:26:15.922Z,100585.69
2022-09-10T09:29:00.414Z,100575.19
2022-09-10T09:31:29.075Z,100583.94
2022-09-10T09:34:03.382Z,100590.00
2022-09-10T09:36:34.281Z,100575.84
2022-09-10T09:39:03.774Z,100586.66
2022-09-10T09:41:38.323Z,100572.47
2022-09-10T09:44:20.309Z,100575.97
2022-09-10T09:46:46.711Z,100572.00
2022-09-10T09:49:17.025Z,100572.88
2022-09-10T09:51:46.283Z,100573.09
2022-09-10T09:54:51.424Z,100571.38
2022-09-10T09:57:14.744Z,100570.09
2022-09-10T09:59:41.361Z,100571.38
2022-09-10T10:02:16.819Z,100565.63
2022-09-10T10:04:56.350Z,100570.94
2022-09-10T10:07:26.994Z,100568.66
2022-09-10T10:09:53.491Z,100562.88
2022-09-10T10:12:21.085Z,100565.28
2022-09-10T10:14:47.662Z,100564.81
2022-09-10T10:17:33.008Z,100560.19
2022-09-10T10:20:05.570Z,100564.06
2022-09-10T10:22:32.186Z,100555.72
2022-09-10T10:25:00.144Z,100557.59
2022-09-10T10:27:32.960Z,100549.81
2022-09-10T10:30:01.555Z,100558.63
2022-09-10T10:32:34.989Z,100554.63
2022-09-10T10:35:16.339Z,100541.41
2022-09-10T10:37:53.606Z,100541.63
2022-09-10T10:40:32.348Z,100546.63
2022-09-10T10:43:14.180Z,100544.00
2022-09-10T10:45:56.170Z,100552.66
2022-09-10T10:48:25.731Z,100544.88
2022-09-10T10:51:11.605Z,100541.97
2022-09-10T10:53:38.362Z,100544.19
2022-09-10T10:56:12.876Z,100545.28
2022-09-10T10:58:53.977Z,100548.94
2022-09-10T11:01:25.045Z,100548.28
2022-09-10T11:03:56.622Z,100558.56
2022-09-10T11:06:25.837Z,100547.97
2022-09-10T11:09:01.905Z,100547.16
2022-09-10T11:11:34.594Z,100557.84
2022-09-10T11:14:00.983Z,100556.50
2022-09-10T11:16:36.521Z,100555.81
2022-09-10T11:19:16.134Z,100562.88
2022-09-10T11:21:50.671Z,100560.94
2022-09-10T11:24:19.275Z,100550.63
2022-09-10T11:26:50.132Z,100549.94
2022-09-10T11:29:35.457Z,100555.22
2022-09-10T11:32:05.000Z,100554.66
2022-09-10T11:34:43.870Z,100552.84
2022-09-10T11:37:26.533Z,100549.44
2022-09-10T11:39:55.092Z,100547.09
2022-09-10T11:42:27.922Z,100544.59
2022-09-10T11:44:58.336Z,100534.94
2022-09-10T11:47:24.764Z,100540.28
2022-09-10T11:50:23.748Z,100533.88
2022-09-10T11:52:50.880Z,100538.00
2022-09-10T11:55:17.799Z,100544.81
2022-09-10T11:57:56.494Z,100541.81
2022-09-10T12:00:25.292Z,100537.22
2022-09-10T12:03:18.251Z,100543.59
2022-09-10T12:05:56.357Z,100542.69
2022-09-10T12:08:28.471Z,100539.31
2022-09-10T12:11:13.952Z,100549.28
2022-09-10T12:13:41.489Z,100550.41
2022-09-10T12:16:20.117Z,100553.94
2022-09-10T12:18:51.383Z,100552.03
2022-09-10T12:21:25.318Z,100544.59
2022-09-10T12:23:52.815Z,100551.22
2022-09-10T12:26:22.301Z,100552.38
2022-09-10T12:28:49.420Z,100554.53
2022-09-10T12:31:17.323Z,100539.13
2022-09-10T12:33:43.809Z,100543.25
2022-09-10T12:36:11.285Z,100536.50
2022-09-10T12:38:56.887Z,100539.59
2022-09-10T12:41:23.283Z,100539.84
2022-09-10T12:43:49.741Z,100543.53
2022-09-10T12:46:19.880Z,100537.22
2022-09-10T12:48:55.959Z,100537.50
2022-09-10T12:51:42.009Z,100537.50
2022-09-10T12:54:23.774Z,100537.59
2022-09-10T12:57:03.142Z,100536.16
2022-09-10T12:59:35.504Z,100536.81
2022-09-10T13:02:02.853Z,100535.63
2022-09-10T13:04:34.729Z,100524.38
2022-09-10T13:07:04.518Z,100526.94
2022-09-10T13:09:36.432Z,100531.94
2022-09-10T13:12:08.164Z,100540.00
2022-09-10T13:14:38.171Z,100521.69
2022-09-10T13:17:04.727Z,100528.84
2022-09-10T13:19:31.137Z,100522.06
2022-09-10T13:21:57.645Z,100524.50
2022-09-10T13:24:33.882Z,100522.84
2022-09-10T13:27:12.599Z,100519.66
2022-09-10T13:30:14.650Z,100515.16
2022-09-10T13:32:43.893Z,100513.44
2022-09-10T13:35:10.379Z,100512.78
2022-09-10T13:37:36.757Z,100518.97
2022-09-10T13:40:22.439Z,100507.44
2022-09-10T13:42:59.301Z,100513.91
2022-09-10T13:45:35.749Z,100515.16
2022-09-10T13:48:21.042Z,100514.84
2022-09-10T13:51:07.755Z,100503.06
2022-09-10T13:53:35.885Z,100498.69
2022-09-10T13:56:12.355Z,100500.41
2022-09-10T13:58:44.876Z,100500.94
2022-09-10T14:01:11.436Z,100499.84
2022-09-10T14:03:38.380Z,100497.63
2022-09-10T14:06:09.697Z,100502.03
2022-09-10T14:08:39.296Z,100496.88
2022-09-10T14:11:06.979Z,100504.97
2022-09-10T14:13:55.404Z,100504.72
2022-09-10T14:16:31.802Z,100499.59
2022-09-10T14:18:59.462Z,100514.03
2022-09-10T14:21:28.960Z,100497.88
2022-09-10T14:23:57.167Z,100503.63
2022-09-10T14:26:28.053Z,100502.81
2022-09-10T14:28:54.522Z,100501.66
2022-09-10T14:31:27.043Z,100498.78
2022-09-10T14:33:54.175Z,100495.38
2022-09-10T14:36:29.983Z,100498.22
2022-09-10T14:39:15.311Z,100499.28
2022-09-10T14:41:42.105Z,100507.03
2022-09-10T14:44:14.042Z,100503.72
2022-09-10T14:46:51.466Z,100503.84
2022-09-10T14:49:26.566Z,100490.63
2022-09-10T14:51:53.403Z,100489.84
2022-09-10T14:54:19.902Z,100489.91
2022-09-10T14:56:47.719Z,100493.38
2022-09-10T14:59:16.108Z,100497.91
2022-09-10T15:01:43.600Z,100499.84
2022-09-10T15:04:14.130Z,100500.25
2022-09-10T15:06:41.054Z,100497.91
2022-09-10T15:09:08.069Z,100494.09
2022-09-10T15:11:34.885Z,100496.50
2022-09-10T15:14:01.394Z,100486.91
2022-09-10T15:16:27.837Z,100491.38
2022-09-10T15:18:54.315Z,100493.94
2022-09-10T15:21:20.886Z,100497.28
2022-09-10T15:23:48.284Z,100497.75
2022-09-10T15:26:15.091Z,100491.00
2022-09-10T15:28:41.692Z,100490.06
2022-09-10T15:31:08.790Z,100504.28
2022-09-10T15:33:36.081Z,100496.78
2022-09-10T15:36:02.837Z,100504.94
2022-09-10T15:38:29.385Z,100503.81
2022-09-10T15:41:06.419Z,100504.16
2022-09-10T15:43:36.110Z,100508.81
2022-09-10T15:46:02.937Z,100503.53
2022-09-10T15:48:30.644Z,100502.69
2022-09-10T15:51:00.342Z,100488.72
2022-09-10T15:53:27.140Z,100504.09
2022-09-10T15:55:55.388Z,100492.97
2022-09-10T15:58:21.800Z,100491.47
2022-09-10T16:00:48.340Z,100498.91
2022-09-10T16:03:14.766Z,100495.44
2022-09-10T16:05:41.598Z,100503.72
2022-09-10T16:08:08.101Z,100503.94
2022-09-10T16:10:38.089Z,100491.00
2022-09-10T16:13:04.570Z,100501.13
2022-09-10T16:15:31.024Z,100492.00
2022-09-10T16:17:58.083Z,100496.50
2022-09-10T16:20:24.586Z,100486.75
2022-09-10T16:22:54.374Z,100497.47
2022-09-10T16:25:20.827Z,100495.84
2022-09-10T16:27:47.490Z,100499.66
2022-09-10T16:30:13.953Z,100506.03
2022-09-10T16:32:40.555Z,100504.41
2022-09-10T16:35:08.535Z,100509.22
2022-09-10T16:37:35.036Z,100510.97
2022-09-10T16:40:02.020Z,100513.09
2022-09-10T16:42:29.386Z,100516.44
2022-09-10T16:44:58.723Z,100526.53
2022-09-10T16:47:25.447Z,100528.44
2022-09-10T16:49:51.967Z,100534.19
2022-09-10T16:52:18.506Z,100534.84
2022-09-10T16:54:46.082Z,100536.72
2022-09-10T16:57:12.623Z,100541.66
2022-09-10T16:59:39.082Z,100542.94
2022-09-10T17:02:07.467Z,100536.09
2022-09-10T17:04:34.593Z,100546.97
2022-09-10T17:07:01.126Z,100544.75
2022-09-10T17:09:27.742Z,100550.47
2022-09-10T17:11:54.184Z,100550.31
2022-09-10T17:14:20.825Z,100549.19
2022-09-10T17:16:48.334Z,100545.34
2022-09-10T17:19:16.381Z,100539.91
2022-09-10T17:21:44.829Z,100545.03
2022-09-10T17:24:12.716Z,100532.19
2022-09-10T17:26:39.947Z,100535.69
2022-09-10T17:29:07.636Z,100547.66
2022-09-10T17:31:34.747Z,100546.19
2022-09-10T17:34:02.084Z,100553.84
2022-09-10T17:36:28.798Z,100560.88
2022-09-10T17:38:56.170Z,100561.50
2022-09-10T17:41:23.324Z,100559.28
2022-09-10T17:43:50.256Z,100561.03
2022-09-10T17:46:22.499Z,100564.03
2022-09-10T17:48:51.427Z,100569.00
2022-09-10T17:51:19.299Z,100573.94
2022-09-10T17:53:46.335Z,100577.09
2022-09-10T17:56:14.039Z,100575.13
2022-09-10T17:58:41.430Z,100579.28
2022-09-10T18:01:10.851Z,100574.25
2022-09-10T18:03:37.388Z,100585.25
2022-09-10T18:06:05.929Z,100590.69
2022-09-10T18:08:33.094Z,100581.41
2022-09-10T18:11:05.712Z,100583.03
2022-09-10T18:13:34.099Z,100589.56
2022-09-10T18:16:04.493Z,100586.34
2022-09-10T18:18:31.114Z,100586.84
2022-09-10T18:21:00.834Z,100593.41
2022-09-10T18:58:55.782Z,100608.59
2022-09-10T19:32:22.549Z,100627.88
2022-09-10T19:35:29.792Z,100623.88
2022-09-10T19:37:59.954Z,100629.28
2022-09-10T19:40:32.883Z,100628.50
2022-09-10T19:46:23.811Z,100624.97
2022-09-10T19:58:40.010Z,100631.50
2022-09-10T20:01:13.609Z,100626.69
2022-09-10T20:03:40.820Z,100626.88
2022-09-10T20:06:08.454Z,100626.09
2022-09-10T20:08:35.453Z,100630.59
2022-09-10T20:11:03.905Z,100643.75
2022-09-10T20:13:30.392Z,100641.94
2022-09-10T20:15:59.542Z,100646.16
2022-09-10T20:18:27.669Z,100649.38
2022-09-10T20:20:55.231Z,100640.94
2022-09-10T20:23:22.205Z,100650.28
2022-09-10T20:25:48.687Z,100636.94
2022-09-10T20:28:15.162Z,100642.25
2022-09-10T20:30:41.844Z,100642.25
2022-09-10T20:33:08.444Z,100640.66
2022-09-10T20:35:35.102Z,100638.75
2022-09-10T20:38:01.733Z,100644.97
2022-09-10T20:40:28.535Z,100648.28
2022-09-10T20:42:55.188Z,100646.16
2022-09-10T20:45:24.466Z,100647.16
2022-09-10T20:47:51.031Z,100652.59
2022-09-10T20:50:17.722Z,100643.38
2022-09-10T20:52:44.470Z,100647.16
2022-09-10T20:55:12.104Z,100653.19
2022-09-10T20:57:38.864Z,100651.59
2022-09-10T21:00:07.280Z,100659.22
2022-09-10T21:02:33.838Z,100667.84
2022-09-10T21:05:00.827Z,100665.94
2022-09-10T21:07:28.445Z,100661.84
2022-09-10T21:09:57.210Z,100662.03
2022-09-10T21:12:23.892Z,100668.28
2022-09-10T21:14:50.359Z,100661.22
2022-09-10T21:17:16.836Z,100666.34
2022-09-10T21:19:46.206Z,100675.56
2022-09-10T21:22:13.303Z,100668.84
2022-09-10T21:24:39.867Z,100658.63
2022-09-10T21:27:06.373Z,100665.13
2022-09-10T21:29:33.137Z,100656.50
2022-09-10T21:31:59.674Z,100664.25
2022-09-10T21:34:26.191Z,100656.50
2022-09-10T21:36:52.844Z,100657.38
2022-09-10T21:39:19.698Z,100667.72
2022-09-10T21:41:47.300Z,100659.97
2022-09-10T21:44:14.885Z,100664.34
2022-09-10T21:46:42.464Z,100672.28
2022-09-10T21:49:15.553Z,100661.97
2022-09-10T21:51:42.158Z,100667.38
2022-09-10T21:54:12.871Z,100659.84
2022-09-10T21:56:39.471Z,100661.75
2022-09-10T21:59:06.020Z,100661.97
2022-09-10T22:01:32.721Z,100665.19
2022-09-10T22:04:02.891Z,100670.03
2022-09-10T22:06:30.494Z,100674.25
2022-09-10T22:08:58.561Z,100674.75
2022-09-10T22:11:30.107Z,100668.81
2022-09-10T22:13:58.088Z,100674.25
2022-09-10T22:16:25.847Z,100671.03
2022-09-10T22:18:53.748Z,100671.03
2022-09-10T22:21:20.249Z,100662.63
2022-09-10T22:23:46.735Z,100672.03
2022-09-10T22:26:14.575Z,100672.56
2022-09-10T22:28:41.600Z,100674.13
2022-09-10T22:31:15.825Z,100674.66
2022-09-10T22:33:43.778Z,100678.47
2022-09-10T22:36:20.893Z,100674.66
2022-09-10T22:38:51.760Z,100678.69
2022-09-10T22:41:19.005Z,100674.34
2022-09-10T22:43:46.011Z,100675.16
2022-09-10T22:46:12.507Z,100682.50
2022-09-10T22:48:40.941Z,100680.69
2022-09-10T22:51:09.088Z,100682.28
2022-09-10T22:53:35.587Z,100680.69
2022-09-10T22:56:02.596Z,100691.53
2022-09-10T22:58:39.627Z,100683.91
2022-09-10T23:01:08.806Z,100681.97
2022-09-10T23:03:35.860Z,100690.41
2022-09-10T23:06:06.761Z,100691.72
2022-09-10T23:08:36.653Z,100691.53
2022-09-10T23:11:17.813Z,100693.72
2022-09-10T23:13:45.697Z,100686.69
2022-09-10T23:16:13.778Z,100684.88
2022-09-10T23:18:41.180Z,100681.00
2022-09-10T23:21:08.318Z,100685.00
2022-09-10T23:23:34.791Z,100684.53
2022-09-10T23:26:08.850Z,100686.34
2022-09-10T23:28:36.146Z,100689.31
2022-09-10T23:31:13.468Z,100684.94
2022-09-10T23:33:40.893Z,100694.34
2022-09-10T23:36:07.896Z,100694.34
2022-09-10T23:38:34.971Z,100693.28
2022-09-10T23:41:02.819Z,100689.44
2022-09-10T23:43:29.280Z,100695.97
2022-09-10T23:45:55.828Z,100703.00
2022-09-10T23:48:23.955Z,100705.94
2022-09-10T23:50:51.110Z,100704.47
2022-09-10T23:53:18.269Z,100704.06
2022-09-10T23:55:45.141Z,100698.88
2022-09-10T23:58:11.664Z,100694.25
